Time;durP1;ratioP1;P1;durP2;ratioP2;P2;SDS_P1;SDS_P2;PMS_P1;PMS_P2;Temp;Humidity;BMP_temperature;BMP_pressure;BME280_temperature;BME280_humidity;BME280_pressure;Samples;Min_cycle;Max_cycle;Signal;HPM_P1;HPM_P2
2022/03/27 00:01:42;;;;;;;;;;;13.90;82.60;;;;;;4302857;33;43943;-85
2022/03/27 00:04:10;;;;;;;;;;;13.80;82.50;;;;;;4303001;33;43852;-84
2022/03/27 00:06:37;;;;;;;;;;;13.90;82.90;;;;;;4316044;33;43877;-85
2022/03/27 00:09:04;;;;;;;;;;;13.90;83.00;;;;;;4315938;33;42632;-85
2022/03/27 00:11:31;;;;;;;;;;;13.80;82.70;;;;;;4303050;33;42241;-84
2022/03/27 00:13:59;;;;;;;;;;;13.80;83.20;;;;;;4303304;33;44262;-84
2022/03/27 00:16:26;;;;;;;;;;;13.80;83.20;;;;;;4316132;33;43482;-84
2022/03/27 00:18:55;;;;;;;;;;;13.80;83.20;;;;;;4303365;33;44052;-84
2022/03/27 00:21:22;;;;;;;;;;;13.80;83.30;;;;;;4303015;33;43448;-84
2022/03/27 00:23:50;;;;;;;;;;;13.80;83.20;;;;;;4315818;33;42987;-84
2022/03/27 00:26:17;;;;;;;;;;;13.80;83.30;;;;;;4316007;33;43486;-85
2022/03/27 00:28:44;;;;;;;;;;;13.80;83.40;;;;;;4316078;33;43165;-85
2022/03/27 00:31:11;;;;;;;;;;;13.80;83.40;;;;;;4316007;33;43478;-85
2022/03/27 00:33:41;;;;;;;;;;;13.70;83.70;;;;;;4315674;33;42328;-85
2022/03/27 00:36:10;;;;;;;;;;;13.70;83.80;;;;;;4315677;33;42959;-85
2022/03/27 00:38:37;;;;;;;;;;;13.70;83.60;;;;;;4315829;33;43926;-85
2022/03/27 00:41:05;;;;;;;;;;;13.70;84.20;;;;;;4315300;33;44891;-85
2022/03/27 00:43:33;;;;;;;;;;;13.70;84.30;;;;;;4315696;33;44218;-85
2022/03/27 00:46:00;;;;;;;;;;;13.70;84.40;;;;;;4316275;33;43536;-84
2022/03/27 00:48:28;;;;;;;;;;;13.70;83.90;;;;;;4315922;33;43945;-85
2022/03/27 00:50:55;;;;;;;;;;;13.70;84.00;;;;;;4302761;33;44223;-85
2022/03/27 00:53:22;;;;;;;;;;;13.70;83.90;;;;;;4315553;33;43279;-85
2022/03/27 00:55:49;;;;;;;;;;;13.60;84.30;;;;;;4302407;33;42673;-84
2022/03/27 00:58:17;;;;;;;;;;;13.60;84.60;;;;;;4315852;33;44252;-85
2022/03/27 01:00:54;;;;;;;;;;;13.60;84.70;;;;;;4302932;33;43279;-85
2022/03/27 01:03:23;;;;;;;;;;;13.60;85.00;;;;;;4315403;33;45143;-85
2022/03/27 01:05:52;;;;;;;;;;;13.60;85.40;;;;;;4302444;33;42157;-85
2022/03/27 01:11:14;;;;;;;;;;;13.50;85.80;;;;;;4315948;33;43006;-85
2022/03/27 01:13:48;;;;;;;;;;;13.50;85.80;;;;;;4302736;33;45996;-84
2022/03/27 01:16:17;;;;;;;;;;;13.50;86.10;;;;;;4315908;33;44745;-84
2022/03/27 01:18:44;;;;;;;;;;;13.50;85.30;;;;;;4302707;33;43347;-85
2022/03/27 01:21:13;;;;;;;;;;;13.50;86.40;;;;;;4315308;33;44043;-85
2022/03/27 01:23:40;;;;;;;;;;;13.50;85.20;;;;;;4315348;33;43834;-85
2022/03/27 01:26:07;;;;;;;;;;;13.50;85.20;;;;;;4302235;33;44220;-85
2022/03/27 01:28:40;;;;;;;;;;;13.50;86.10;;;;;;4303163;33;43973;-85
2022/03/27 01:31:07;;;;;;;;;;;13.50;85.70;;;;;;4315292;33;43695;-85
2022/03/27 01:33:34;;;;;;;;;;;13.50;85.70;;;;;;4315563;33;44076;-84
2022/03/27 01:36:01;;;;;;;;;;;13.40;86.00;;;;;;4315220;33;42822;-85
2022/03/27 01:38:28;;;;;;;;;;;13.50;86.60;;;;;;4315204;33;42994;-85
2022/03/27 01:40:55;;;;;;;;;;;13.50;86.50;;;;;;4315600;33;44283;-85
2022/03/27 01:43:22;;;;;;;;;;;13.40;86.40;;;;;;4315148;33;43221;-85
2022/03/27 01:45:49;;;;;;;;;;;13.50;87.00;;;;;;4302269;33;44155;-85
2022/03/27 01:48:16;;;;;;;;;;;13.40;86.80;;;;;;4315485;33;44200;-86
2022/03/27 01:50:43;;;;;;;;;;;13.40;87.10;;;;;;4315044;33;44872;-85
2022/03/27 01:53:11;;;;;;;;;;;13.40;87.20;;;;;;4317206;33;43157;-84
2022/03/27 01:55:38;;;;;;;;;;;13.40;87.40;;;;;;4318239;33;42690;-85
2022/03/27 01:58:06;;;;;;;;;;;13.40;87.40;;;;;;4317995;33;44253;-84
2022/03/27 02:00:35;;;;;;;;;;;13.30;87.30;;;;;;4304639;33;42723;-85
2022/03/27 02:03:03;;;;;;;;;;;13.40;86.90;;;;;;4317758;33;44593;-84
2022/03/27 02:05:31;;;;;;;;;;;13.30;87.10;;;;;;4318014;33;43258;-85
2022/03/27 02:07:58;;;;;;;;;;;13.30;87.00;;;;;;4304971;33;43038;-85
2022/03/27 02:10:45;;;;;;;;;;;13.30;87.50;;;;;;4307273;33;45204;-85
2022/03/27 02:13:13;;;;;;;;;;;13.30;87.80;;;;;;4304459;33;44116;-85
2022/03/27 02:15:41;;;;;;;;;;;13.30;88.50;;;;;;4317923;33;42630;-85
2022/03/27 02:18:09;;;;;;;;;;;13.20;88.60;;;;;;4317530;33;43506;-85
2022/03/27 02:20:36;;;;;;;;;;;13.30;88.70;;;;;;4304318;33;42556;-85
2022/03/27 02:23:03;;;;;;;;;;;13.30;88.90;;;;;;4304446;33;42893;-84
2022/03/27 02:25:31;;;;;;;;;;;13.20;88.90;;;;;;4317411;33;43878;-84
2022/03/27 02:27:58;;;;;;;;;;;13.30;89.10;;;;;;4317440;33;43298;-85
2022/03/27 02:30:25;;;;;;;;;;;13.30;88.80;;;;;;4317337;33;43478;-85
2022/03/27 02:32:52;;;;;;;;;;;13.20;88.90;;;;;;4317449;33;44145;-85
2022/03/27 02:35:19;;;;;;;;;;;13.30;88.80;;;;;;4304187;33;43276;-85
2022/03/27 02:37:46;;;;;;;;;;;13.30;89.50;;;;;;4317460;33;44166;-85
2022/03/27 02:40:13;;;;;;;;;;;13.20;88.80;;;;;;4317770;33;41460;-85
2022/03/27 02:42:40;;;;;;;;;;;13.20;88.90;;;;;;4304287;33;42311;-85
2022/03/27 02:45:08;;;;;;;;;;;13.20;89.10;;;;;;4304359;33;43469;-84
2022/03/27 02:47:35;;;;;;;;;;;13.20;89.00;;;;;;4304381;33;44134;-85
2022/03/27 02:50:04;;;;;;;;;;;13.20;89.10;;;;;;4303951;33;43012;-85
2022/03/27 02:52:32;;;;;;;;;;;13.20;89.00;;;;;;4317485;33;43969;-84
2022/03/27 02:54:59;;;;;;;;;;;13.20;89.00;;;;;;4303919;33;44100;-85
2022/03/27 02:57:26;;;;;;;;;;;13.20;89.00;;;;;;4316977;33;43939;-85
2022/03/27 02:59:53;;;;;;;;;;;13.20;88.90;;;;;;4304295;33;43346;-85
2022/03/27 03:02:20;;;;;;;;;;;13.20;89.00;;;;;;4303778;33;43304;-84
2022/03/27 03:04:48;;;;;;;;;;;13.20;88.80;;;;;;4304116;33;44101;-84
2022/03/27 03:07:15;;;;;;;;;;;13.20;89.20;;;;;;4316846;33;42555;-85
2022/03/27 03:09:42;;;;;;;;;;;13.10;89.40;;;;;;4317082;33;44682;-85
2022/03/27 03:12:10;;;;;;;;;;;13.10;89.50;;;;;;4317324;33;44063;-84
2022/03/27 03:14:37;;;;;;;;;;;13.00;89.60;;;;;;4303931;33;42076;-84
2022/03/27 03:17:04;;;;;;;;;;;13.00;89.60;;;;;;4317144;33;43931;-85
2022/03/27 03:19:31;;;;;;;;;;;13.00;89.60;;;;;;4303573;33;44048;-85
2022/03/27 03:21:59;;;;;;;;;;;13.00;89.50;;;;;;4316780;33;43487;-85
2022/03/27 03:24:27;;;;;;;;;;;13.00;89.50;;;;;;4316643;33;44922;-85
2022/03/27 03:26:55;;;;;;;;;;;13.00;89.60;;;;;;4316864;33;46016;-84
2022/03/27 03:29:22;;;;;;;;;;;13.00;89.90;;;;;;4303408;33;44651;-85
2022/03/27 03:31:49;;;;;;;;;;;13.00;89.80;;;;;;4303327;33;42249;-85
2022/03/27 03:34:16;;;;;;;;;;;13.00;89.60;;;;;;4303874;33;44527;-85
2022/03/27 03:36:44;;;;;;;;;;;13.00;89.60;;;;;;4316644;33;42763;-85
2022/03/27 03:39:11;;;;;;;;;;;12.90;89.40;;;;;;4316564;33;44379;-84
2022/03/27 03:41:38;;;;;;;;;;;12.90;89.50;;;;;;4303686;33;43899;-85
2022/03/27 03:44:22;;;;;;;;;;;12.90;89.60;;;;;;4304918;33;44355;-84
2022/03/27 03:46:49;;;;;;;;;;;12.90;89.50;;;;;;4303273;33;44198;-85
2022/03/27 03:49:16;;;;;;;;;;;12.80;89.80;;;;;;4303124;33;42957;-85
2022/03/27 03:51:43;;;;;;;;;;;12.80;90.00;;;;;;4303454;33;43896;-85
2022/03/27 03:54:10;;;;;;;;;;;12.70;90.20;;;;;;4316570;33;43117;-84
2022/03/27 03:56:40;;;;;;;;;;;12.70;90.40;;;;;;4316144;33;43267;-84
2022/03/27 03:59:07;;;;;;;;;;;12.70;90.60;;;;;;4303380;33;44234;-84
2022/03/27 04:01:54;;;;;;;;;;;12.70;90.50;;;;;;4316042;33;43477;-84
2022/03/27 04:04:22;;;;;;;;;;;12.60;90.60;;;;;;4302792;33;43966;-84
2022/03/27 04:06:49;;;;;;;;;;;12.60;90.60;;;;;;4316463;33;43178;-84
2022/03/27 04:09:16;;;;;;;;;;;12.60;90.70;;;;;;4316571;33;43169;-84
2022/03/27 04:11:44;;;;;;;;;;;12.60;90.70;;;;;;4303312;33;44327;-85
2022/03/27 04:14:12;;;;;;;;;;;12.60;90.70;;;;;;4302723;33;43481;-85
2022/03/27 04:16:39;;;;;;;;;;;12.60;90.80;;;;;;4315899;33;42788;-84
2022/03/27 04:19:06;;;;;;;;;;;12.60;90.80;;;;;;4303367;33;43403;-85
2022/03/27 04:21:33;;;;;;;;;;;12.60;90.90;;;;;;4316253;33;42889;-84
2022/03/27 04:24:00;;;;;;;;;;;12.60;90.90;;;;;;4303009;33;44513;-84
2022/03/27 04:26:31;;;;;;;;;;;12.50;91.10;;;;;;4316117;33;43152;-84
2022/03/27 04:28:59;;;;;;;;;;;12.50;91.00;;;;;;4315937;33;42651;-84
2022/03/27 04:31:26;;;;;;;;;;;12.50;91.10;;;;;;4302908;33;43061;-84
2022/03/27 04:33:53;;;;;;;;;;;12.50;90.70;;;;;;4316352;33;44032;-84
2022/03/27 04:36:20;;;;;;;;;;;12.50;90.60;;;;;;4316197;33;43165;-84
2022/03/27 04:38:47;;;;;;;;;;;12.50;90.50;;;;;;4315538;33;44424;-84
2022/03/27 04:41:15;;;;;;;;;;;12.60;90.40;;;;;;4315721;33;43512;-85
2022/03/27 04:43:46;;;;;;;;;;;12.60;90.40;;;;;;4302647;33;44028;-84
2022/03/27 04:46:14;;;;;;;;;;;12.60;90.50;;;;;;4302955;33;43509;-84
2022/03/27 04:48:42;;;;;;;;;;;12.60;91.00;;;;;;4302959;33;44090;-84
2022/03/27 04:51:09;;;;;;;;;;;12.60;90.80;;;;;;4315722;33;43543;-84
2022/03/27 04:53:36;;;;;;;;;;;12.60;90.50;;;;;;4315631;33;43482;-84
2022/03/27 04:56:06;;;;;;;;;;;12.60;90.50;;;;;;4316099;33;43841;-84
2022/03/27 04:58:34;;;;;;;;;;;12.60;90.90;;;;;;4315918;33;44183;-84
2022/03/27 05:01:01;;;;;;;;;;;12.60;90.60;;;;;;4302676;33;43923;-84
2022/03/27 05:03:28;;;;;;;;;;;12.60;90.80;;;;;;4302251;33;43535;-84
2022/03/27 05:05:56;;;;;;;;;;;12.60;90.80;;;;;;4315872;33;44057;-85
2022/03/27 05:08:23;;;;;;;;;;;12.60;90.60;;;;;;4315598;33;43094;-84
2022/03/27 05:10:50;;;;;;;;;;;12.50;90.80;;;;;;4302495;33;45099;-84
2022/03/27 05:13:18;;;;;;;;;;;12.60;90.70;;;;;;4302257;33;43513;-84
2022/03/27 05:15:45;;;;;;;;;;;12.60;90.60;;;;;;4302508;33;43981;-84
2022/03/27 05:18:13;;;;;;;;;;;12.60;90.50;;;;;;4315679;33;44508;-84
2022/03/27 05:20:41;;;;;;;;;;;12.60;90.80;;;;;;4302235;33;42867;-84
2022/03/27 05:23:08;;;;;;;;;;;12.50;91.00;;;;;;4302731;33;46268;-84
2022/03/27 05:25:42;;;;;;;;;;;12.50;91.10;;;;;;4302594;33;43568;-84
2022/03/27 05:28:09;;;;;;;;;;;12.50;91.30;;;;;;4305550;33;43682;-84
2022/03/27 05:30:37;;;;;;;;;;;12.50;91.10;;;;;;4318543;33;44170;-84
2022/03/27 05:33:05;;;;;;;;;;;12.40;91.60;;;;;;4305263;33;43921;-84
2022/03/27 05:35:32;;;;;;;;;;;12.40;91.70;;;;;;4305081;33;45166;-84
2022/03/27 05:38:04;;;;;;;;;;;12.30;91.60;;;;;;4318318;33;44082;-84
2022/03/27 05:40:31;;;;;;;;;;;12.30;91.70;;;;;;4318578;33;43680;-84
2022/03/27 05:42:58;;;;;;;;;;;12.30;91.80;;;;;;4305049;33;45201;-84
2022/03/27 05:45:27;;;;;;;;;;;12.30;91.60;;;;;;4318791;33;29136;-84
2022/03/27 05:47:54;;;;;;;;;;;12.20;91.60;;;;;;4317862;33;43936;-84
2022/03/27 05:50:22;;;;;;;;;;;12.20;91.80;;;;;;4317771;33;44118;-84
2022/03/27 05:52:50;;;;;;;;;;;12.20;91.50;;;;;;4318330;33;43128;-84
2022/03/27 05:55:17;;;;;;;;;;;12.20;91.70;;;;;;4304848;33;44273;-84
2022/03/27 05:57:44;;;;;;;;;;;12.20;91.60;;;;;;4304789;33;43484;-84
2022/03/27 06:00:12;;;;;;;;;;;12.20;91.60;;;;;;4318268;33;43445;-84
2022/03/27 06:02:40;;;;;;;;;;;12.20;91.50;;;;;;4317832;33;43314;-84
2022/03/27 06:05:08;;;;;;;;;;;12.20;92.00;;;;;;4304660;33;44974;-84
2022/03/27 06:07:46;;;;;;;;;;;12.20;91.80;;;;;;4304594;33;42834;-84
2022/03/27 06:10:13;;;;;;;;;;;12.20;91.70;;;;;;4304480;33;42820;-84
2022/03/27 06:12:43;;;;;;;;;;;12.20;92.00;;;;;;4304904;33;44420;-84
2022/03/27 06:15:10;;;;;;;;;;;12.20;92.20;;;;;;4304533;33;42757;-84
2022/03/27 06:17:43;;;;;;;;;;;12.20;92.50;;;;;;4318005;33;44223;-84
2022/03/27 06:20:12;;;;;;;;;;;12.10;92.30;;;;;;4305076;33;43113;-84
2022/03/27 06:22:40;;;;;;;;;;;12.20;92.40;;;;;;4317872;33;43971;-84
2022/03/27 06:25:08;;;;;;;;;;;12.10;92.50;;;;;;4304263;33;43305;-84
2022/03/27 06:27:35;;;;;;;;;;;12.10;92.20;;;;;;4317497;33;43469;-85
2022/03/27 06:30:03;;;;;;;;;;;12.10;92.30;;;;;;4304270;33;44743;-84
2022/03/27 06:32:31;;;;;;;;;;;12.20;92.40;;;;;;4304268;33;42612;-84
2022/03/27 06:34:59;;;;;;;;;;;12.20;92.20;;;;;;4317540;33;43495;-84
2022/03/27 06:37:28;;;;;;;;;;;12.20;92.20;;;;;;4317262;33;43211;-84
2022/03/27 06:39:55;;;;;;;;;;;12.20;92.20;;;;;;4304525;33;43346;-84
2022/03/27 06:42:23;;;;;;;;;;;12.20;92.30;;;;;;4317189;33;45787;-84
2022/03/27 06:44:51;;;;;;;;;;;12.20;92.40;;;;;;4304777;33;44427;-84
2022/03/27 06:47:19;;;;;;;;;;;12.20;92.40;;;;;;4317486;33;44222;-84
2022/03/27 06:49:46;;;;;;;;;;;12.20;92.50;;;;;;4304510;33;43619;-85
2022/03/27 06:52:13;;;;;;;;;;;12.30;92.50;;;;;;4317545;33;44729;-84
2022/03/27 06:54:41;;;;;;;;;;;12.30;92.60;;;;;;4304311;33;45600;-84
2022/03/27 06:57:08;;;;;;;;;;;12.20;92.90;;;;;;4317463;33;43297;-84
2022/03/27 07:05:09;;;;;;;;;;;12.20;93.20;;;;;;4317412;33;42359;-84
2022/03/27 07:07:36;;;;;;;;;;;12.20;93.20;;;;;;4303877;33;44219;-84
2022/03/27 07:10:06;;;;;;;;;;;12.20;93.30;;;;;;4304519;33;43100;-84
2022/03/27 07:12:33;;;;;;;;;;;12.20;93.50;;;;;;4316751;33;44248;-84
2022/03/27 07:15:01;;;;;;;;;;;12.20;93.50;;;;;;4317068;33;43534;-84
2022/03/27 07:17:44;;;;;;;;;;;12.20;93.70;;;;;;4305264;33;42617;-84
2022/03/27 07:20:11;;;;;;;;;;;12.20;93.60;;;;;;4303558;33;43474;-85
2022/03/27 07:22:39;;;;;;;;;;;12.20;93.70;;;;;;4303603;33;45772;-84
2022/03/27 07:25:07;;;;;;;;;;;12.20;93.60;;;;;;4316570;33;43444;-84
2022/03/27 07:27:34;;;;;;;;;;;12.20;93.90;;;;;;4304611;33;20010;-84
2022/03/27 07:30:02;;;;;;;;;;;12.20;94.10;;;;;;4316909;33;43891;-84
2022/03/27 07:32:29;;;;;;;;;;;12.20;94.10;;;;;;4303455;33;42608;-84
2022/03/27 07:34:57;;;;;;;;;;;12.20;94.10;;;;;;4316932;33;43484;-84
2022/03/27 07:37:25;;;;;;;;;;;12.20;94.30;;;;;;4316626;33;42654;-84
2022/03/27 07:39:52;;;;;;;;;;;12.20;94.30;;;;;;4316648;33;43512;-84
2022/03/27 07:42:19;;;;;;;;;;;12.20;94.10;;;;;;4303527;33;43244;-84
2022/03/27 07:44:46;;;;;;;;;;;12.20;94.20;;;;;;4303526;33;43284;-85
2022/03/27 07:47:13;;;;;;;;;;;12.20;94.30;;;;;;4316520;33;42302;-84
2022/03/27 07:49:40;;;;;;;;;;;12.20;94.40;;;;;;4302690;33;43304;-84
2022/03/27 07:52:07;;;;;;;;;;;12.20;94.50;;;;;;4316756;33;43851;-84
2022/03/27 07:54:36;;;;;;;;;;;12.20;94.50;;;;;;4316731;33;43865;-84
2022/03/27 07:57:03;;;;;;;;;;;12.20;94.50;;;;;;4316695;33;44116;-84
2022/03/27 07:59:30;;;;;;;;;;;12.20;94.60;;;;;;4303397;33;43263;-84
2022/03/27 08:01:57;;;;;;;;;;;12.20;94.60;;;;;;4315865;33;45042;-84
2022/03/27 08:04:25;;;;;;;;;;;12.20;94.80;;;;;;4316503;33;44561;-84
2022/03/27 08:06:52;;;;;;;;;;;12.20;95.00;;;;;;4316306;33;42649;-84
2022/03/27 08:09:19;;;;;;;;;;;12.20;94.90;;;;;;4316042;33;43109;-84
2022/03/27 08:11:46;;;;;;;;;;;12.20;94.90;;;;;;4316485;33;43694;-84
2022/03/27 08:14:13;;;;;;;;;;;12.20;94.90;;;;;;4316017;33;44086;-84
2022/03/27 08:16:40;;;;;;;;;;;12.20;94.90;;;;;;4302896;33;42248;-84
2022/03/27 08:19:07;;;;;;;;;;;12.20;94.80;;;;;;4302760;33;42683;-84
2022/03/27 08:21:35;;;;;;;;;;;12.20;94.90;;;;;;4302980;33;44068;-84
2022/03/27 08:24:02;;;;;;;;;;;12.20;94.70;;;;;;4316134;33;45305;-84
2022/03/27 08:29:15;;;;;;;;;;;12.20;95.20;;;;;;4316098;33;43314;-84
2022/03/27 08:31:42;;;;;;;;;;;12.30;96.10;;;;;;4315938;33;43198;-84
2022/03/27 08:34:09;;;;;;;;;;;12.20;95.40;;;;;;4316087;33;42318;-84
2022/03/27 08:36:36;;;;;;;;;;;12.20;95.30;;;;;;4303068;33;44209;-84
2022/03/27 08:39:03;;;;;;;;;;;12.30;95.50;;;;;;4316083;33;44196;-83
2022/03/27 08:41:31;;;;;;;;;;;12.30;96.10;;;;;;4316082;33;45614;-83
2022/03/27 08:43:58;;;;;;;;;;;12.20;96.10;;;;;;4315718;33;44699;-83
2022/03/27 08:46:26;;;;;;;;;;;12.20;96.20;;;;;;4315828;33;43900;-84
2022/03/27 08:48:58;;;;;;;;;;;12.20;95.70;;;;;;4302782;33;43970;-83
2022/03/27 08:52:01;;;;;;;;;;;12.20;95.60;;;;;;4316023;33;43011;-84
2022/03/27 08:54:51;;;;;;;;;;;12.20;95.40;;;;;;4256609;33;43326;-84
2022/03/27 08:57:30;;;;;;;;;;;12.30;95.60;;;;;;4313444;33;42883;-84
2022/03/27 08:59:57;;;;;;;;;;;12.30;95.60;;;;;;4315866;33;42647;-84
2022/03/27 09:02:24;;;;;;;;;;;12.30;95.50;;;;;;4301920;33;44149;-83
2022/03/27 09:04:55;;;;;;;;;;;12.30;95.60;;;;;;4302677;33;42854;-84
2022/03/27 09:07:27;;;;;;;;;;;12.30;95.60;;;;;;4302698;33;42891;-84
2022/03/27 09:09:58;;;;;;;;;;;12.30;95.80;;;;;;4315562;33;42846;-84
2022/03/27 09:12:25;;;;;;;;;;;12.30;95.60;;;;;;4302341;33;43776;-83
2022/03/27 09:14:52;;;;;;;;;;;12.30;95.80;;;;;;4302333;33;44504;-83
2022/03/27 09:17:19;;;;;;;;;;;12.30;95.70;;;;;;4302411;33;44185;-83
2022/03/27 09:19:47;;;;;;;;;;;12.30;95.60;;;;;;4302130;33;44283;-84
2022/03/27 09:22:16;;;;;;;;;;;12.30;95.60;;;;;;4315454;33;43912;-83
2022/03/27 09:24:47;;;;;;;;;;;12.30;95.60;;;;;;4302546;33;43457;-84
2022/03/27 09:27:15;;;;;;;;;;;12.30;95.80;;;;;;4315283;33;44274;-84
2022/03/27 09:30:02;;;;;;;;;;;12.30;95.60;;;;;;4302270;33;42790;-84
2022/03/27 09:32:30;;;;;;;;;;;12.30;95.50;;;;;;4315665;33;43289;-84
2022/03/27 09:35:02;;;;;;;;;;;12.30;95.70;;;;;;4315705;33;43239;-84
2022/03/27 09:37:33;;;;;;;;;;;12.30;95.80;;;;;;4302633;33;42280;-84
2022/03/27 09:40:03;;;;;;;;;;;12.30;95.90;;;;;;4302225;33;43405;-84
2022/03/27 09:42:30;;;;;;;;;;;12.30;96.00;;;;;;4315183;33;42988;-84
2022/03/27 09:45:15;;;;;;;;;;;12.30;95.80;;;;;;4302378;33;42263;-84
2022/03/27 09:47:50;;;;;;;;;;;12.30;96.10;;;;;;4315586;33;43469;-83
2022/03/27 09:50:37;;;;;;;;;;;12.30;96.00;;;;;;4302727;33;44230;-84
2022/03/27 09:53:20;;;;;;;;;;;12.30;96.10;;;;;;4315799;33;43173;-84
2022/03/27 09:55:53;;;;;;;;;;;12.30;95.90;;;;;;4315392;33;43132;-83
2022/03/27 09:58:32;;;;;;;;;;;12.30;96.10;;;;;;4302450;33;44959;-84
2022/03/27 10:01:07;;;;;;;;;;;12.30;95.90;;;;;;4315139;33;42599;-85
2022/03/27 10:03:57;;;;;;;;;;;12.40;96.20;;;;;;4286782;33;45150;-85
2022/03/27 10:06:37;;;;;;;;;;;12.30;96.20;;;;;;4286285;33;43055;-84
2022/03/27 10:09:05;;;;;;;;;;;12.30;96.00;;;;;;4286665;33;44513;-84
2022/03/27 10:11:34;;;;;;;;;;;12.40;96.30;;;;;;4286099;33;43205;-84
2022/03/27 10:14:03;;;;;;;;;;;12.40;96.10;;;;;;4288115;33;44171;-84
2022/03/27 10:16:34;;;;;;;;;;;12.40;96.30;;;;;;4289099;33;44954;-84
2022/03/27 10:19:02;;;;;;;;;;;12.40;96.30;;;;;;4288902;33;42986;-84
2022/03/27 10:21:30;;;;;;;;;;;12.40;96.30;;;;;;4288964;33;44175;-84
2022/03/27 10:24:04;;;;;;;;;;;12.40;96.10;;;;;;4288687;33;43050;-84
2022/03/27 10:26:37;;;;;;;;;;;12.40;96.30;;;;;;4289070;33;45493;-84
2022/03/27 10:29:05;;;;;;;;;;;12.40;96.70;;;;;;4288695;33;43112;-85
2022/03/27 10:31:32;;;;;;;;;;;12.40;96.40;;;;;;4289033;33;43430;-84
2022/03/27 10:34:01;;;;;;;;;;;12.40;96.30;;;;;;4287662;33;43773;-84
2022/03/27 10:36:36;;;;;;;;;;;12.40;96.70;;;;;;4287575;33;44233;-84
2022/03/27 10:39:13;;;;;;;;;;;12.40;96.80;;;;;;4288962;33;43900;-84
2022/03/27 10:41:59;;;;;;;;;;;12.40;96.60;;;;;;4288518;33;42551;-84
2022/03/27 10:44:41;;;;;;;;;;;12.40;96.70;;;;;;4288743;33;43689;-84
2022/03/27 10:47:16;;;;;;;;;;;12.40;97.00;;;;;;4288186;33;44987;-84
2022/03/27 10:50:08;;;;;;;;;;;12.40;97.00;;;;;;4288838;33;43203;-84
2022/03/27 10:52:43;;;;;;;;;;;12.50;96.70;;;;;;4288300;33;44274;-84
2022/03/27 10:55:14;;;;;;;;;;;12.40;97.00;;;;;;4288334;33;42952;-84
2022/03/27 10:57:49;;;;;;;;;;;12.40;97.10;;;;;;4288292;33;43316;-84
2022/03/27 11:00:36;;;;;;;;;;;12.40;97.30;;;;;;4288547;33;44794;-84
2022/03/27 11:03:03;;;;;;;;;;;12.40;97.20;;;;;;4310742;33;44102;-84
2022/03/27 11:05:37;;;;;;;;;;;12.40;97.30;;;;;;4303841;33;44612;-84
2022/03/27 11:08:17;;;;;;;;;;;12.40;97.60;;;;;;4317397;33;43062;-84
2022/03/27 11:10:49;;;;;;;;;;;12.50;97.20;;;;;;4317474;33;43545;-84
2022/03/27 11:13:22;;;;;;;;;;;12.50;97.80;;;;;;4317351;33;44254;-84
2022/03/27 11:16:05;;;;;;;;;;;12.50;98.00;;;;;;4304182;33;43274;-84
2022/03/27 11:18:36;;;;;;;;;;;12.50;98.20;;;;;;4303759;33;44283;-84
2022/03/27 11:21:04;;;;;;;;;;;12.50;98.40;;;;;;4317340;33;45827;-84
2022/03/27 11:23:33;;;;;;;;;;;12.50;98.40;;;;;;4303315;33;43856;-84
2022/03/27 11:26:00;;;;;;;;;;;12.50;98.50;;;;;;4317027;33;44215;-84
2022/03/27 11:28:42;;;;;;;;;;;12.50;98.60;;;;;;4303380;33;44066;-84
2022/03/27 11:31:09;;;;;;;;;;;12.50;98.70;;;;;;4317454;33;43352;-84
2022/03/27 11:33:39;;;;;;;;;;;12.50;98.70;;;;;;4304846;33;20383;-84
2022/03/27 11:36:09;;;;;;;;;;;12.50;99.10;;;;;;4303878;33;44069;-84
2022/03/27 11:38:55;;;;;;;;;;;12.50;99.10;;;;;;4303807;33;45581;-84
2022/03/27 11:41:24;;;;;;;;;;;12.60;99.10;;;;;;4316927;33;45487;-83
2022/03/27 11:43:51;;;;;;;;;;;12.60;99.10;;;;;;4316474;33;44219;-84
2022/03/27 11:46:23;;;;;;;;;;;12.60;99.40;;;;;;4303450;33;43440;-84
2022/03/27 11:49:00;;;;;;;;;;;12.60;99.20;;;;;;4303530;33;42674;-83
2022/03/27 11:51:28;;;;;;;;;;;12.60;99.30;;;;;;4303512;33;43938;-84
2022/03/27 11:53:56;;;;;;;;;;;12.60;99.20;;;;;;4303208;33;43479;-84
2022/03/27 11:56:24;;;;;;;;;;;12.70;99.30;;;;;;4304987;33;43222;-83
2022/03/27 11:59:02;;;;;;;;;;;12.60;99.40;;;;;;4303224;33;43448;-84
2022/03/27 12:01:29;;;;;;;;;;;12.70;99.20;;;;;;4304485;33;44150;-84
2022/03/27 12:04:00;;;;;;;;;;;12.70;99.20;;;;;;4305329;33;20049;-84
2022/03/27 12:06:28;;;;;;;;;;;12.70;99.30;;;;;;4317292;33;44003;-83
2022/03/27 12:08:56;;;;;;;;;;;12.70;99.60;;;;;;4316525;33;44518;-84
2022/03/27 12:11:26;;;;;;;;;;;12.70;99.60;;;;;;4302806;33;46018;-84
2022/03/27 12:13:53;;;;;;;;;;;12.80;99.40;;;;;;4316263;33;44011;-85
2022/03/27 12:16:22;;;;;;;;;;;12.70;99.50;;;;;;4316257;33;43774;-85
2022/03/27 12:18:50;;;;;;;;;;;12.80;99.70;;;;;;4302866;33;43131;-84
2022/03/27 12:21:20;;;;;;;;;;;12.80;99.90;;;;;;4302878;33;42668;-84
2022/03/27 12:23:51;;;;;;;;;;;12.80;99.90;;;;;;4315829;33;43610;-84
2022/03/27 12:32:04;;;;;;;;;;;12.80;99.90;;;;;;4315846;33;43375;-84
2022/03/27 12:34:32;;;;;;;;;;;12.80;99.90;;;;;;4316675;33;19990;-84
2022/03/27 12:37:16;;;;;;;;;;;12.90;99.90;;;;;;4302134;33;43887;-84
2022/03/27 12:39:46;;;;;;;;;;;12.90;99.90;;;;;;4303102;33;44064;-85
2022/03/27 12:42:29;;;;;;;;;;;12.90;99.90;;;;;;4316292;33;45562;-84
2022/03/27 12:45:22;;;;;;;;;;;13.00;99.90;;;;;;4315806;33;42422;-84
2022/03/27 12:47:55;;;;;;;;;;;13.00;99.90;;;;;;4309363;33;43774;-85
2022/03/27 12:50:27;;;;;;;;;;;13.00;99.90;;;;;;4302743;33;42909;-84
2022/03/27 12:52:57;;;;;;;;;;;13.00;99.90;;;;;;4315780;33;42293;-85
2022/03/27 12:55:26;;;;;;;;;;;13.00;99.90;;;;;;4315578;33;44063;-84
2022/03/27 12:57:57;;;;;;;;;;;13.10;99.90;;;;;;4315646;33;44848;-84
2022/03/27 13:00:28;;;;;;;;;;;13.10;99.90;;;;;;4315541;33;43012;-84
2022/03/27 13:03:09;;;;;;;;;;;13.20;99.90;;;;;;4302514;33;43485;-84
2022/03/27 13:05:37;;;;;;;;;;;13.20;99.90;;;;;;4303383;33;20006;-84
2022/03/27 13:08:04;;;;;;;;;;;13.20;99.90;;;;;;4302599;33;44014;-84
2022/03/27 13:10:31;;;;;;;;;;;13.30;99.90;;;;;;4302295;33;43895;-85
2022/03/27 13:13:00;;;;;;;;;;;13.30;99.90;;;;;;4315775;33;43858;-85
2022/03/27 13:15:41;;;;;;;;;;;13.30;99.90;;;;;;4302737;33;44183;-85
2022/03/27 13:18:15;;;;;;;;;;;13.30;99.90;;;;;;4302393;33;42860;-85
2022/03/27 13:20:43;;;;;;;;;;;13.30;99.90;;;;;;4315681;33;43971;-84
2022/03/27 13:23:10;;;;;;;;;;;13.30;99.90;;;;;;4302332;33;43399;-84
2022/03/27 13:25:37;;;;;;;;;;;13.40;99.90;;;;;;4315142;33;44818;-84
2022/03/27 13:28:05;;;;;;;;;;;13.40;99.90;;;;;;4315423;33;43841;-85
2022/03/27 13:30:32;;;;;;;;;;;13.40;99.90;;;;;;4302727;33;43221;-84
2022/03/27 13:33:00;;;;;;;;;;;13.50;99.90;;;;;;4302393;33;41942;-85
2022/03/27 13:35:28;;;;;;;;;;;13.50;99.90;;;;;;4315227;33;43384;-84
2022/03/27 13:37:55;;;;;;;;;;;13.50;99.90;;;;;;4315810;33;44271;-85
2022/03/27 13:40:22;;;;;;;;;;;13.50;99.90;;;;;;4315298;33;43872;-85
2022/03/27 13:42:58;;;;;;;;;;;13.60;99.90;;;;;;4315333;33;43458;-85
2022/03/27 13:45:26;;;;;;;;;;;13.60;99.90;;;;;;4302755;33;46096;-83
2022/03/27 13:47:55;;;;;;;;;;;13.60;99.90;;;;;;4316770;33;44339;-85
2022/03/27 13:50:25;;;;;;;;;;;13.60;99.90;;;;;;4305287;33;43502;-85
2022/03/27 13:52:52;;;;;;;;;;;13.60;99.90;;;;;;4317885;33;43485;-85
2022/03/27 13:55:19;;;;;;;;;;;13.70;99.90;;;;;;4305332;33;42818;-84
2022/03/27 13:57:46;;;;;;;;;;;13.70;99.90;;;;;;4305259;33;46027;-85
2022/03/27 14:00:13;;;;;;;;;;;13.70;99.90;;;;;;4318213;33;43658;-85
2022/03/27 14:02:40;;;;;;;;;;;13.70;99.90;;;;;;4317873;33;43324;-85
2022/03/27 14:05:08;;;;;;;;;;;13.80;99.90;;;;;;4305030;33;44363;-85
2022/03/27 14:07:35;;;;;;;;;;;13.80;99.90;;;;;;4318514;33;20049;-85
2022/03/27 14:10:03;;;;;;;;;;;13.80;99.90;;;;;;4304728;33;44004;-84
2022/03/27 14:12:30;;;;;;;;;;;13.90;99.90;;;;;;4317739;33;44688;-85
2022/03/27 14:14:57;;;;;;;;;;;13.90;99.90;;;;;;4317699;33;43356;-84
2022/03/27 14:17:24;;;;;;;;;;;13.90;99.90;;;;;;4317577;33;42955;-85
2022/03/27 14:19:51;;;;;;;;;;;14.00;99.90;;;;;;4317437;33;44305;-85
2022/03/27 14:22:18;;;;;;;;;;;14.00;99.90;;;;;;4318188;33;42614;-85
2022/03/27 14:24:49;;;;;;;;;;;14.00;99.90;;;;;;4318232;33;43196;-84
2022/03/27 14:27:16;;;;;;;;;;;14.00;99.90;;;;;;4304356;33;42570;-84
2022/03/27 14:29:44;;;;;;;;;;;14.00;99.90;;;;;;4317433;33;43086;-85
2022/03/27 14:32:11;;;;;;;;;;;14.10;99.90;;;;;;4304662;33;43175;-84
2022/03/27 14:34:42;;;;;;;;;;;14.10;99.90;;;;;;4317780;33;43898;-85
2022/03/27 14:37:13;;;;;;;;;;;14.10;99.90;;;;;;4304112;33;44697;-85
2022/03/27 14:39:40;;;;;;;;;;;14.20;99.90;;;;;;4317748;33;43199;-85
2022/03/27 14:42:08;;;;;;;;;;;14.20;99.90;;;;;;4317507;33;43753;-85
2022/03/27 14:44:35;;;;;;;;;;;14.20;99.90;;;;;;4317264;33;43230;-85
2022/03/27 14:47:02;;;;;;;;;;;14.20;99.90;;;;;;4317526;33;42796;-86